sensor_id;sensor_type;location;lat;lon;timestamp;P1;durP1;ratioP1;P2;durP2;ratioP2
31390;SDS011;18022;45.492;11.548;2023-03-05T00:01:18;49.30;;;30.58;;
31390;SDS011;18022;45.492;11.548;2023-03-05T00:18:11;39.83;;;27.20;;
31390;SDS011;18022;45.492;11.548;2023-03-05T00:20:37;39.10;;;26.58;;
31390;SDS011;18022;45.492;11.548;2023-03-05T00:23:03;40.53;;;27.85;;
31390;SDS011;18022;45.492;11.548;2023-03-05T00:25:29;50.20;;;29.05;;
31390;SDS011;18022;45.492;11.548;2023-03-05T00:27:56;45.15;;;29.33;;
31390;SDS011;18022;45.492;11.548;2023-03-05T00:30:22;45.10;;;29.45;;
31390;SDS011;18022;45.492;11.548;2023-03-05T00:32:48;48.10;;;30.63;;
31390;SDS011;18022;45.492;11.548;2023-03-05T00:35:14;44.92;;;30.15;;
31390;SDS011;18022;45.492;11.548;2023-03-05T00:37:40;48.38;;;30.60;;
31390;SDS011;18022;45.492;11.548;2023-03-05T00:40:06;46.38;;;30.13;;
31390;SDS011;18022;45.492;11.548;2023-03-05T00:42:32;46.08;;;30.08;;
31390;SDS011;18022;45.492;11.548;2023-03-05T00:45:02;45.42;;;31.02;;
31390;SDS011;18022;45.492;11.548;2023-03-05T00:47:28;47.42;;;31.13;;
31390;SDS011;18022;45.492;11.548;2023-03-05T00:49:54;48.42;;;31.20;;
31390;SDS011;18022;45.492;11.548;2023-03-05T00:52:20;44.20;;;30.88;;
31390;SDS011;18022;45.492;11.548;2023-03-05T00:54:46;47.67;;;29.45;;
31390;SDS011;18022;45.492;11.548;2023-03-05T00:57:12;40.75;;;28.55;;
31390;SDS011;18022;45.492;11.548;2023-03-05T00:59:40;51.38;;;31.30;;
31390;SDS011;18022;45.492;11.548;2023-03-05T01:02:06;45.70;;;30.25;;
31390;SDS011;18022;45.492;11.548;2023-03-05T01:04:32;39.53;;;27.30;;
31390;SDS011;18022;45.492;11.548;2023-03-05T01:06:58;39.47;;;27.33;;
31390;SDS011;18022;45.492;11.548;2023-03-05T01:09:24;39.95;;;26.83;;
31390;SDS011;18022;45.492;11.548;2023-03-05T01:11:50;45.30;;;29.38;;
31390;SDS011;18022;45.492;11.548;2023-03-05T01:14:17;43.88;;;30.25;;
31390;SDS011;18022;45.492;11.548;2023-03-05T01:16:43;42.47;;;28.65;;
31390;SDS011;18022;45.492;11.548;2023-03-05T01:19:09;41.80;;;27.35;;
31390;SDS011;18022;45.492;11.548;2023-03-05T01:21:35;42.90;;;26.95;;
31390;SDS011;18022;45.492;11.548;2023-03-05T01:24:02;40.70;;;27.13;;
31390;SDS011;18022;45.492;11.548;2023-03-05T01:26:28;36.63;;;26.27;;
31390;SDS011;18022;45.492;11.548;2023-03-05T01:28:54;38.58;;;25.80;;
31390;SDS011;18022;45.492;11.548;2023-03-05T01:31:20;40.42;;;28.00;;
31390;SDS011;18022;45.492;11.548;2023-03-05T01:33:47;41.67;;;27.70;;
31390;SDS011;18022;45.492;11.548;2023-03-05T01:36:13;42.97;;;28.35;;
31390;SDS011;18022;45.492;11.548;2023-03-05T01:38:44;39.25;;;27.73;;
31390;SDS011;18022;45.492;11.548;2023-03-05T01:41:11;42.50;;;28.27;;
31390;SDS011;18022;45.492;11.548;2023-03-05T01:43:37;43.83;;;29.65;;
31390;SDS011;18022;45.492;11.548;2023-03-05T01:48:41;42.33;;;30.08;;
31390;SDS011;18022;45.492;11.548;2023-03-05T01:51:08;45.85;;;29.73;;
31390;SDS011;18022;45.492;11.548;2023-03-05T01:53:35;44.35;;;29.73;;
31390;SDS011;18022;45.492;11.548;2023-03-05T01:56:01;46.72;;;29.02;;
31390;SDS011;18022;45.492;11.548;2023-03-05T01:58:27;45.70;;;29.27;;
31390;SDS011;18022;45.492;11.548;2023-03-05T02:00:53;45.03;;;29.98;;
31390;SDS011;18022;45.492;11.548;2023-03-05T02:03:20;42.95;;;26.90;;
31390;SDS011;18022;45.492;11.548;2023-03-05T02:05:47;42.63;;;28.23;;
31390;SDS011;18022;45.492;11.548;2023-03-05T02:08:14;42.08;;;28.98;;
31390;SDS011;18022;45.492;11.548;2023-03-05T02:10:42;51.15;;;31.42;;
31390;SDS011;18022;45.492;11.548;2023-03-05T02:13:09;49.85;;;31.38;;
31390;SDS011;18022;45.492;11.548;2023-03-05T02:18:02;36.08;;;25.10;;
31390;SDS011;18022;45.492;11.548;2023-03-05T02:20:30;37.25;;;25.48;;
31390;SDS011;18022;45.492;11.548;2023-03-05T02:22:56;39.80;;;25.88;;
31390;SDS011;18022;45.492;11.548;2023-03-05T02:25:24;37.50;;;26.63;;
31390;SDS011;18022;45.492;11.548;2023-03-05T02:27:52;37.70;;;25.55;;
31390;SDS011;18022;45.492;11.548;2023-03-05T02:30:20;34.53;;;23.83;;
31390;SDS011;18022;45.492;11.548;2023-03-05T02:32:46;37.55;;;26.30;;
31390;SDS011;18022;45.492;11.548;2023-03-05T02:35:12;44.40;;;29.27;;
31390;SDS011;18022;45.492;11.548;2023-03-05T02:37:38;43.42;;;28.85;;
31390;SDS011;18022;45.492;11.548;2023-03-05T02:40:04;48.13;;;30.48;;
31390;SDS011;18022;45.492;11.548;2023-03-05T02:42:30;38.25;;;26.23;;
31390;SDS011;18022;45.492;11.548;2023-03-05T02:44:58;39.80;;;26.48;;
31390;SDS011;18022;45.492;11.548;2023-03-05T02:47:25;45.42;;;27.45;;
31390;SDS011;18022;45.492;11.548;2023-03-05T02:49:51;36.17;;;24.88;;
31390;SDS011;18022;45.492;11.548;2023-03-05T02:52:17;37.53;;;26.27;;
31390;SDS011;18022;45.492;11.548;2023-03-05T02:54:43;41.58;;;28.85;;
31390;SDS011;18022;45.492;11.548;2023-03-05T02:57:09;43.53;;;28.08;;
31390;SDS011;18022;45.492;11.548;2023-03-05T02:59:35;34.05;;;24.25;;
31390;SDS011;18022;45.492;11.548;2023-03-05T03:02:01;33.65;;;23.38;;
31390;SDS011;18022;45.492;11.548;2023-03-05T03:04:27;34.85;;;24.17;;
31390;SDS011;18022;45.492;11.548;2023-03-05T03:06:53;29.38;;;20.27;;
31390;SDS011;18022;45.492;11.548;2023-03-05T03:09:19;19.40;;;15.82;;
31390;SDS011;18022;45.492;11.548;2023-03-05T03:11:46;23.83;;;18.27;;
31390;SDS011;18022;45.492;11.548;2023-03-05T03:14:12;35.65;;;23.80;;
31390;SDS011;18022;45.492;11.548;2023-03-05T03:16:38;18.58;;;14.30;;
31390;SDS011;18022;45.492;11.548;2023-03-05T03:19:04;25.83;;;19.35;;
31390;SDS011;18022;45.492;11.548;2023-03-05T03:21:30;25.45;;;20.00;;
31390;SDS011;18022;45.492;11.548;2023-03-05T03:23:56;36.53;;;25.88;;
31390;SDS011;18022;45.492;11.548;2023-03-05T03:26:22;40.15;;;26.63;;
31390;SDS011;18022;45.492;11.548;2023-03-05T03:28:48;34.15;;;24.70;;
31390;SDS011;18022;45.492;11.548;2023-03-05T03:31:15;30.13;;;22.10;;
31390;SDS011;18022;45.492;11.548;2023-03-05T03:33:41;28.70;;;22.20;;
31390;SDS011;18022;45.492;11.548;2023-03-05T03:36:07;30.13;;;23.02;;
31390;SDS011;18022;45.492;11.548;2023-03-05T03:38:34;32.88;;;23.52;;
31390;SDS011;18022;45.492;11.548;2023-03-05T03:41:00;30.85;;;23.67;;
31390;SDS011;18022;45.492;11.548;2023-03-05T03:43:26;32.38;;;23.20;;
31390;SDS011;18022;45.492;11.548;2023-03-05T03:45:52;38.50;;;26.88;;
31390;SDS011;18022;45.492;11.548;2023-03-05T03:48:18;30.00;;;22.92;;
31390;SDS011;18022;45.492;11.548;2023-03-05T03:50:44;31.50;;;22.85;;
31390;SDS011;18022;45.492;11.548;2023-03-05T03:53:10;36.90;;;25.48;;
31390;SDS011;18022;45.492;11.548;2023-03-05T03:55:38;32.67;;;23.00;;
31390;SDS011;18022;45.492;11.548;2023-03-05T03:58:04;32.95;;;22.45;;
31390;SDS011;18022;45.492;11.548;2023-03-05T04:00:32;31.60;;;24.45;;
31390;SDS011;18022;45.492;11.548;2023-03-05T04:02:58;38.85;;;27.25;;
31390;SDS011;18022;45.492;11.548;2023-03-05T04:05:24;35.72;;;26.05;;
31390;SDS011;18022;45.492;11.548;2023-03-05T04:07:50;32.38;;;24.77;;
31390;SDS011;18022;45.492;11.548;2023-03-05T04:10:16;35.72;;;25.33;;
31390;SDS011;18022;45.492;11.548;2023-03-05T04:12:43;36.15;;;24.50;;
31390;SDS011;18022;45.492;11.548;2023-03-05T04:15:10;28.35;;;21.83;;
31390;SDS011;18022;45.492;11.548;2023-03-05T04:17:36;33.97;;;23.15;;
31390;SDS011;18022;45.492;11.548;2023-03-05T04:20:03;37.63;;;25.92;;
31390;SDS011;18022;45.492;11.548;2023-03-05T04:22:29;41.10;;;27.77;;
31390;SDS011;18022;45.492;11.548;2023-03-05T04:24:55;46.33;;;29.33;;
31390;SDS011;18022;45.492;11.548;2023-03-05T04:27:22;42.85;;;28.00;;
31390;SDS011;18022;45.492;11.548;2023-03-05T04:29:48;36.35;;;26.02;;
31390;SDS011;18022;45.492;11.548;2023-03-05T04:32:15;39.22;;;26.42;;
31390;SDS011;18022;45.492;11.548;2023-03-05T04:34:47;39.00;;;26.40;;
31390;SDS011;18022;45.492;11.548;2023-03-05T04:37:13;41.45;;;28.92;;
31390;SDS011;18022;45.492;11.548;2023-03-05T04:39:39;41.03;;;27.27;;
31390;SDS011;18022;45.492;11.548;2023-03-05T04:42:05;36.75;;;26.73;;
31390;SDS011;18022;45.492;11.548;2023-03-05T04:44:31;44.30;;;28.25;;
31390;SDS011;18022;45.492;11.548;2023-03-05T04:46:57;42.28;;;28.95;;
31390;SDS011;18022;45.492;11.548;2023-03-05T04:49:23;55.33;;;28.48;;
31390;SDS011;18022;45.492;11.548;2023-03-05T04:51:49;63.85;;;29.10;;
31390;SDS011;18022;45.492;11.548;2023-03-05T04:54:15;43.30;;;28.10;;
31390;SDS011;18022;45.492;11.548;2023-03-05T04:56:41;38.60;;;26.85;;
31390;SDS011;18022;45.492;11.548;2023-03-05T04:59:07;40.13;;;26.80;;
31390;SDS011;18022;45.492;11.548;2023-03-05T05:01:33;34.90;;;24.85;;
31390;SDS011;18022;45.492;11.548;2023-03-05T05:04:00;33.10;;;24.50;;
31390;SDS011;18022;45.492;11.548;2023-03-05T05:06:26;31.63;;;23.80;;
31390;SDS011;18022;45.492;11.548;2023-03-05T05:08:52;26.38;;;21.65;;
31390;SDS011;18022;45.492;11.548;2023-03-05T05:11:18;23.30;;;19.80;;
31390;SDS011;18022;45.492;11.548;2023-03-05T05:13:44;19.92;;;17.73;;
31390;SDS011;18022;45.492;11.548;2023-03-05T05:16:10;22.92;;;18.63;;
31390;SDS011;18022;45.492;11.548;2023-03-05T05:18:37;15.68;;;14.07;;
31390;SDS011;18022;45.492;11.548;2023-03-05T05:21:06;14.60;;;13.20;;
31390;SDS011;18022;45.492;11.548;2023-03-05T05:23:33;15.90;;;14.30;;
31390;SDS011;18022;45.492;11.548;2023-03-05T05:25:59;15.80;;;14.07;;
31390;SDS011;18022;45.492;11.548;2023-03-05T05:28:26;15.55;;;14.02;;
31390;SDS011;18022;45.492;11.548;2023-03-05T05:30:52;35.25;;;24.50;;
31390;SDS011;18022;45.492;11.548;2023-03-05T05:33:18;27.00;;;20.92;;
31390;SDS011;18022;45.492;11.548;2023-03-05T05:35:45;32.55;;;22.80;;
31390;SDS011;18022;45.492;11.548;2023-03-05T05:38:11;25.27;;;19.70;;
31390;SDS011;18022;45.492;11.548;2023-03-05T05:40:37;24.75;;;19.80;;
31390;SDS011;18022;45.492;11.548;2023-03-05T05:43:03;34.17;;;24.77;;
31390;SDS011;18022;45.492;11.548;2023-03-05T05:45:29;33.05;;;22.73;;
31390;SDS011;18022;45.492;11.548;2023-03-05T05:47:55;33.47;;;24.02;;
31390;SDS011;18022;45.492;11.548;2023-03-05T05:50:21;32.38;;;23.48;;
31390;SDS011;18022;45.492;11.548;2023-03-05T05:52:49;32.05;;;21.98;;
31390;SDS011;18022;45.492;11.548;2023-03-05T05:55:16;28.33;;;20.98;;
31390;SDS011;18022;45.492;11.548;2023-03-05T05:57:42;29.63;;;22.25;;
31390;SDS011;18022;45.492;11.548;2023-03-05T06:00:08;30.50;;;21.88;;
31390;SDS011;18022;45.492;11.548;2023-03-05T06:02:39;31.20;;;22.92;;
31390;SDS011;18022;45.492;11.548;2023-03-05T06:05:05;30.95;;;22.83;;
31390;SDS011;18022;45.492;11.548;2023-03-05T06:07:33;32.22;;;22.83;;
31390;SDS011;18022;45.492;11.548;2023-03-05T06:09:59;33.45;;;25.20;;
31390;SDS011;18022;45.492;11.548;2023-03-05T06:12:25;34.63;;;25.05;;
31390;SDS011;18022;45.492;11.548;2023-03-05T06:14:51;32.28;;;22.38;;
31390;SDS011;18022;45.492;11.548;2023-03-05T06:17:18;28.50;;;21.48;;
31390;SDS011;18022;45.492;11.548;2023-03-05T06:19:44;23.00;;;19.33;;
31390;SDS011;18022;45.492;11.548;2023-03-05T06:22:10;18.13;;;16.17;;
31390;SDS011;18022;45.492;11.548;2023-03-05T06:24:37;18.70;;;16.73;;
31390;SDS011;18022;45.492;11.548;2023-03-05T06:27:03;23.95;;;19.25;;
31390;SDS011;18022;45.492;11.548;2023-03-05T06:29:30;51.17;;;18.98;;
31390;SDS011;18022;45.492;11.548;2023-03-05T06:31:56;21.15;;;17.58;;
31390;SDS011;18022;45.492;11.548;2023-03-05T06:34:22;26.45;;;20.17;;
31390;SDS011;18022;45.492;11.548;2023-03-05T06:36:48;22.00;;;17.92;;
31390;SDS011;18022;45.492;11.548;2023-03-05T06:39:14;20.33;;;17.05;;
31390;SDS011;18022;45.492;11.548;2023-03-05T06:41:40;18.70;;;16.73;;
31390;SDS011;18022;45.492;11.548;2023-03-05T06:44:06;28.33;;;20.88;;
31390;SDS011;18022;45.492;11.548;2023-03-05T06:46:33;28.73;;;20.52;;
31390;SDS011;18022;45.492;11.548;2023-03-05T06:49:01;27.23;;;20.15;;
31390;SDS011;18022;45.492;11.548;2023-03-05T06:51:29;26.25;;;20.80;;
31390;SDS011;18022;45.492;11.548;2023-03-05T06:53:58;30.17;;;22.83;;
31390;SDS011;18022;45.492;11.548;2023-03-05T06:56:24;30.17;;;23.00;;
31390;SDS011;18022;45.492;11.548;2023-03-05T06:58:51;27.02;;;18.85;;
31390;SDS011;18022;45.492;11.548;2023-03-05T07:01:17;25.55;;;20.08;;
31390;SDS011;18022;45.492;11.548;2023-03-05T07:03:44;26.00;;;20.08;;
31390;SDS011;18022;45.492;11.548;2023-03-05T07:06:11;24.60;;;20.10;;
31390;SDS011;18022;45.492;11.548;2023-03-05T07:08:37;30.02;;;21.92;;
31390;SDS011;18022;45.492;11.548;2023-03-05T07:11:25;30.40;;;22.65;;
31390;SDS011;18022;45.492;11.548;2023-03-05T07:13:50;33.40;;;22.90;;
31390;SDS011;18022;45.492;11.548;2023-03-05T07:16:17;35.40;;;23.90;;
31390;SDS011;18022;45.492;11.548;2023-03-05T07:18:43;40.33;;;25.85;;
31390;SDS011;18022;45.492;11.548;2023-03-05T07:21:10;42.63;;;28.90;;
31390;SDS011;18022;45.492;11.548;2023-03-05T07:23:38;41.78;;;28.20;;
31390;SDS011;18022;45.492;11.548;2023-03-05T07:26:04;44.92;;;29.13;;
31390;SDS011;18022;45.492;11.548;2023-03-05T07:28:31;43.33;;;29.15;;
31390;SDS011;18022;45.492;11.548;2023-03-05T07:30:58;42.30;;;28.98;;
31390;SDS011;18022;45.492;11.548;2023-03-05T07:33:25;46.63;;;29.98;;
31390;SDS011;18022;45.492;11.548;2023-03-05T07:35:51;37.47;;;27.58;;
31390;SDS011;18022;45.492;11.548;2023-03-05T07:38:17;33.25;;;24.02;;
31390;SDS011;18022;45.492;11.548;2023-03-05T07:40:44;36.72;;;25.48;;
31390;SDS011;18022;45.492;11.548;2023-03-05T07:43:10;38.65;;;27.63;;
31390;SDS011;18022;45.492;11.548;2023-03-05T07:45:39;41.53;;;28.70;;
31390;SDS011;18022;45.492;11.548;2023-03-05T07:48:06;40.17;;;28.05;;
31390;SDS011;18022;45.492;11.548;2023-03-05T07:50:32;42.55;;;29.63;;
31390;SDS011;18022;45.492;11.548;2023-03-05T07:52:59;44.90;;;31.02;;
31390;SDS011;18022;45.492;11.548;2023-03-05T07:55:25;45.70;;;31.20;;
31390;SDS011;18022;45.492;11.548;2023-03-05T07:57:51;47.33;;;31.63;;
31390;SDS011;18022;45.492;11.548;2023-03-05T08:00:17;47.70;;;30.60;;
31390;SDS011;18022;45.492;11.548;2023-03-05T08:02:43;50.33;;;31.95;;
31390;SDS011;18022;45.492;11.548;2023-03-05T08:05:10;52.42;;;34.42;;
31390;SDS011;18022;45.492;11.548;2023-03-05T08:07:36;51.05;;;32.78;;
31390;SDS011;18022;45.492;11.548;2023-03-05T08:10:02;55.20;;;34.92;;
31390;SDS011;18022;45.492;11.548;2023-03-05T08:12:29;49.63;;;33.83;;
31390;SDS011;18022;45.492;11.548;2023-03-05T08:14:55;57.65;;;34.95;;
31390;SDS011;18022;45.492;11.548;2023-03-05T08:17:21;50.03;;;33.60;;
31390;SDS011;18022;45.492;11.548;2023-03-05T08:19:47;49.67;;;32.97;;
31390;SDS011;18022;45.492;11.548;2023-03-05T08:22:13;53.08;;;33.72;;
31390;SDS011;18022;45.492;11.548;2023-03-05T08:24:41;51.53;;;33.38;;
31390;SDS011;18022;45.492;11.548;2023-03-05T08:27:07;55.30;;;35.00;;
31390;SDS011;18022;45.492;11.548;2023-03-05T08:29:33;56.53;;;34.42;;
31390;SDS011;18022;45.492;11.548;2023-03-05T08:31:59;50.90;;;31.95;;
31390;SDS011;18022;45.492;11.548;2023-03-05T08:34:25;51.45;;;32.80;;
31390;SDS011;18022;45.492;11.548;2023-03-05T08:36:51;59.22;;;33.75;;
31390;SDS011;18022;45.492;11.548;2023-03-05T08:39:18;55.85;;;33.60;;
31390;SDS011;18022;45.492;11.548;2023-03-05T08:41:44;55.35;;;32.03;;
31390;SDS011;18022;45.492;11.548;2023-03-05T08:44:10;46.63;;;30.98;;
31390;SDS011;18022;45.492;11.548;2023-03-05T08:46:37;51.47;;;30.88;;
31390;SDS011;18022;45.492;11.548;2023-03-05T08:49:04;43.25;;;27.77;;
31390;SDS011;18022;45.492;11.548;2023-03-05T08:51:31;45.05;;;30.50;;
31390;SDS011;18022;45.492;11.548;2023-03-05T08:53:58;38.60;;;26.05;;
31390;SDS011;18022;45.492;11.548;2023-03-05T08:56:28;44.17;;;24.30;;
31390;SDS011;18022;45.492;11.548;2023-03-05T08:58:55;31.60;;;21.05;;
31390;SDS011;18022;45.492;11.548;2023-03-05T09:01:21;31.63;;;20.85;;
31390;SDS011;18022;45.492;11.548;2023-03-05T09:03:48;32.97;;;20.52;;
31390;SDS011;18022;45.492;11.548;2023-03-05T09:06:14;35.90;;;21.92;;
31390;SDS011;18022;45.492;11.548;2023-03-05T09:08:40;32.10;;;18.85;;
31390;SDS011;18022;45.492;11.548;2023-03-05T09:11:07;29.25;;;18.75;;
31390;SDS011;18022;45.492;11.548;2023-03-05T09:13:33;31.70;;;18.13;;
31390;SDS011;18022;45.492;11.548;2023-03-05T09:16:03;31.63;;;19.02;;
31390;SDS011;18022;45.492;11.548;2023-03-05T09:18:30;27.60;;;18.73;;
31390;SDS011;18022;45.492;11.548;2023-03-05T09:20:57;30.15;;;16.92;;
31390;SDS011;18022;45.492;11.548;2023-03-05T09:23:23;27.02;;;17.92;;
31390;SDS011;18022;45.492;11.548;2023-03-05T09:25:49;25.98;;;16.40;;
31390;SDS011;18022;45.492;11.548;2023-03-05T09:28:15;27.52;;;16.83;;
31390;SDS011;18022;45.492;11.548;2023-03-05T09:30:42;27.13;;;16.63;;
31390;SDS011;18022;45.492;11.548;2023-03-05T09:33:08;27.02;;;17.75;;
31390;SDS011;18022;45.492;11.548;2023-03-05T09:35:34;23.60;;;16.73;;
31390;SDS011;18022;45.492;11.548;2023-03-05T09:38:01;28.75;;;17.67;;
31390;SDS011;18022;45.492;11.548;2023-03-05T09:40:29;26.08;;;17.92;;
31390;SDS011;18022;45.492;11.548;2023-03-05T09:48:23;28.13;;;17.27;;
31390;SDS011;18022;45.492;11.548;2023-03-05T09:50:57;26.23;;;17.65;;
31390;SDS011;18022;45.492;11.548;2023-03-05T09:55:51;29.08;;;17.70;;
31390;SDS011;18022;45.492;11.548;2023-03-05T09:58:21;30.17;;;18.05;;
31390;SDS011;18022;45.492;11.548;2023-03-05T10:00:54;32.25;;;19.02;;
31390;SDS011;18022;45.492;11.548;2023-03-05T10:05:59;35.60;;;20.20;;
31390;SDS011;18022;45.492;11.548;2023-03-05T10:08:30;32.40;;;20.13;;
31390;SDS011;18022;45.492;11.548;2023-03-05T10:10:58;35.55;;;19.50;;
31390;SDS011;18022;45.492;11.548;2023-03-05T10:13:26;35.60;;;22.00;;
31390;SDS011;18022;45.492;11.548;2023-03-05T10:18:50;33.58;;;21.67;;
31390;SDS011;18022;45.492;11.548;2023-03-05T10:21:38;32.22;;;21.05;;
31390;SDS011;18022;45.492;11.548;2023-03-05T10:29:28;42.40;;;24.10;;
31390;SDS011;18022;45.492;11.548;2023-03-05T10:32:05;35.03;;;22.15;;
31390;SDS011;18022;45.492;11.548;2023-03-05T10:34:39;23.08;;;14.70;;
31390;SDS011;18022;45.492;11.548;2023-03-05T10:42:16;34.22;;;21.55;;
31390;SDS011;18022;45.492;11.548;2023-03-05T10:44:53;35.17;;;22.20;;
31390;SDS011;18022;45.492;11.548;2023-03-05T10:49:49;32.92;;;21.65;;
31390;SDS011;18022;45.492;11.548;2023-03-05T10:52:26;35.97;;;23.45;;
31390;SDS011;18022;45.492;11.548;2023-03-05T10:54:53;35.35;;;23.42;;
31390;SDS011;18022;45.492;11.548;2023-03-05T11:02:14;37.25;;;24.48;;
31390;SDS011;18022;45.492;11.548;2023-03-05T11:04:41;33.42;;;22.25;;
31390;SDS011;18022;45.492;11.548;2023-03-05T11:09:40;38.17;;;23.15;;
31390;SDS011;18022;45.492;11.548;2023-03-05T11:12:16;39.88;;;24.23;;
31390;SDS011;18022;45.492;11.548;2023-03-05T11:17:22;33.03;;;23.05;;
31390;SDS011;18022;45.492;11.548;2023-03-05T11:19:49;36.10;;;23.90;;
31390;SDS011;18022;45.492;11.548;2023-03-05T11:22:16;35.55;;;23.92;;
31390;SDS011;18022;45.492;11.548;2023-03-05T11:29:36;38.75;;;24.02;;
31390;SDS011;18022;45.492;11.548;2023-03-05T11:32:26;35.20;;;23.40;;
31390;SDS011;18022;45.492;11.548;2023-03-05T11:34:52;37.38;;;25.50;;
31390;SDS011;18022;45.492;11.548;2023-03-05T11:37:23;33.10;;;23.75;;
31390;SDS011;18022;45.492;11.548;2023-03-05T11:40:04;37.70;;;24.83;;
31390;SDS011;18022;45.492;11.548;2023-03-05T11:42:30;36.45;;;23.88;;
31390;SDS011;18022;45.492;11.548;2023-03-05T11:44:56;37.30;;;25.48;;
31390;SDS011;18022;45.492;11.548;2023-03-05T11:47:38;42.83;;;28.02;;
31390;SDS011;18022;45.492;11.548;2023-03-05T12:00:34;38.38;;;23.33;;
31390;SDS011;18022;45.492;11.548;2023-03-05T12:03:01;32.00;;;22.63;;
31390;SDS011;18022;45.492;11.548;2023-03-05T12:05:29;34.30;;;22.95;;
31390;SDS011;18022;45.492;11.548;2023-03-05T12:07:59;35.28;;;24.05;;
31390;SDS011;18022;45.492;11.548;2023-03-05T12:10:26;39.45;;;25.23;;
31390;SDS011;18022;45.492;11.548;2023-03-05T12:13:03;38.20;;;23.90;;
31390;SDS011;18022;45.492;11.548;2023-03-05T12:15:41;35.38;;;24.98;;
31390;SDS011;18022;45.492;11.548;2023-03-05T12:18:24;39.20;;;26.35;;
31390;SDS011;18022;45.492;11.548;2023-03-05T12:23:22;45.25;;;27.65;;
31390;SDS011;18022;45.492;11.548;2023-03-05T12:25:53;45.88;;;25.67;;
31390;SDS011;18022;45.492;11.548;2023-03-05T12:31:00;39.17;;;25.80;;
31390;SDS011;18022;45.492;11.548;2023-03-05T12:33:36;35.80;;;23.58;;
31390;SDS011;18022;45.492;11.548;2023-03-05T12:38:47;39.72;;;26.50;;
31390;SDS011;18022;45.492;11.548;2023-03-05T12:46:29;36.58;;;26.25;;
31390;SDS011;18022;45.492;11.548;2023-03-05T12:48:57;38.33;;;25.35;;
31390;SDS011;18022;45.492;11.548;2023-03-05T12:51:33;32.05;;;23.95;;
31390;SDS011;18022;45.492;11.548;2023-03-05T12:56:44;46.47;;;25.55;;
31390;SDS011;18022;45.492;11.548;2023-03-05T12:59:11;40.28;;;24.90;;
31390;SDS011;18022;45.492;11.548;2023-03-05T13:01:40;35.20;;;24.08;;
31390;SDS011;18022;45.492;11.548;2023-03-05T13:04:27;38.00;;;24.77;;
31390;SDS011;18022;45.492;11.548;2023-03-05T13:07:05;37.15;;;24.02;;
31390;SDS011;18022;45.492;11.548;2023-03-05T13:09:32;42.22;;;25.38;;
31390;SDS011;18022;45.492;11.548;2023-03-05T13:12:00;38.60;;;25.35;;
31390;SDS011;18022;45.492;11.548;2023-03-05T13:17:00;37.05;;;23.42;;
31390;SDS011;18022;45.492;11.548;2023-03-05T13:19:26;31.52;;;22.15;;
31390;SDS011;18022;45.492;11.548;2023-03-05T13:21:59;33.53;;;23.50;;
31390;SDS011;18022;45.492;11.548;2023-03-05T13:24:26;37.05;;;23.13;;
31390;SDS011;18022;45.492;11.548;2023-03-05T13:26:53;36.88;;;22.90;;
31390;SDS011;18022;45.492;11.548;2023-03-05T13:29:23;36.03;;;24.15;;
31390;SDS011;18022;45.492;11.548;2023-03-05T13:32:09;37.90;;;23.90;;
31390;SDS011;18022;45.492;11.548;2023-03-05T13:34:42;36.58;;;23.77;;
31390;SDS011;18022;45.492;11.548;2023-03-05T13:37:15;39.88;;;23.88;;
31390;SDS011;18022;45.492;11.548;2023-03-05T13:39:45;30.55;;;21.85;;
31390;SDS011;18022;45.492;11.548;2023-03-05T13:42:15;36.88;;;22.98;;
31390;SDS011;18022;45.492;11.548;2023-03-05T13:44:43;49.00;;;30.45;;
31390;SDS011;18022;45.492;11.548;2023-03-05T13:47:19;37.20;;;24.23;;
31390;SDS011;18022;45.492;11.548;2023-03-05T13:49:45;57.03;;;40.15;;
31390;SDS011;18022;45.492;11.548;2023-03-05T13:52:13;36.70;;;26.58;;
31390;SDS011;18022;45.492;11.548;2023-03-05T13:54:47;146.57;;;91.03;;
31390;SDS011;18022;45.492;11.548;2023-03-05T13:57:36;101.05;;;61.70;;
31390;SDS011;18022;45.492;11.548;2023-03-05T14:00:06;40.45;;;26.10;;
31390;SDS011;18022;45.492;11.548;2023-03-05T14:02:32;35.22;;;21.80;;
31390;SDS011;18022;45.492;11.548;2023-03-05T14:04:59;32.35;;;22.23;;
31390;SDS011;18022;45.492;11.548;2023-03-05T14:07:28;33.95;;;21.83;;
31390;SDS011;18022;45.492;11.548;2023-03-05T14:09:55;37.00;;;23.33;;
31390;SDS011;18022;45.492;11.548;2023-03-05T14:12:28;35.75;;;23.23;;
31390;SDS011;18022;45.492;11.548;2023-03-05T14:14:55;35.58;;;24.25;;
31390;SDS011;18022;45.492;11.548;2023-03-05T14:19:48;34.55;;;22.33;;
31390;SDS011;18022;45.492;11.548;2023-03-05T14:22:30;32.78;;;20.45;;
31390;SDS011;18022;45.492;11.548;2023-03-05T14:24:56;32.75;;;21.77;;
31390;SDS011;18022;45.492;11.548;2023-03-05T14:27:22;35.70;;;22.75;;
31390;SDS011;18022;45.492;11.548;2023-03-05T14:29:48;32.88;;;21.77;;
31390;SDS011;18022;45.492;11.548;2023-03-05T14:32:27;35.50;;;22.02;;
31390;SDS011;18022;45.492;11.548;2023-03-05T14:34:55;36.28;;;23.20;;
31390;SDS011;18022;45.492;11.548;2023-03-05T14:37:23;36.15;;;23.08;;
31390;SDS011;18022;45.492;11.548;2023-03-05T14:39:51;35.20;;;23.30;;
31390;SDS011;18022;45.492;11.548;2023-03-05T14:42:48;39.03;;;24.50;;
31390;SDS011;18022;45.492;11.548;2023-03-05T14:45:16;40.78;;;26.20;;
31390;SDS011;18022;45.492;11.548;2023-03-05T14:47:42;36.53;;;25.17;;
31390;SDS011;18022;45.492;11.548;2023-03-05T14:50:10;39.15;;;26.30;;
31390;SDS011;18022;45.492;11.548;2023-03-05T14:52:39;43.17;;;27.35;;
31390;SDS011;18022;45.492;11.548;2023-03-05T14:55:05;37.78;;;25.50;;
31390;SDS011;18022;45.492;11.548;2023-03-05T14:57:31;39.85;;;27.10;;
31390;SDS011;18022;45.492;11.548;2023-03-05T14:59:57;38.63;;;25.88;;
31390;SDS011;18022;45.492;11.548;2023-03-05T15:02:25;41.97;;;26.73;;
31390;SDS011;18022;45.492;11.548;2023-03-05T15:04:51;42.55;;;26.88;;
31390;SDS011;18022;45.492;11.548;2023-03-05T15:07:18;41.25;;;28.27;;
31390;SDS011;18022;45.492;11.548;2023-03-05T15:09:45;40.53;;;27.95;;
31390;SDS011;18022;45.492;11.548;2023-03-05T15:12:12;46.17;;;30.42;;
31390;SDS011;18022;45.492;11.548;2023-03-05T15:14:38;43.15;;;29.45;;
31390;SDS011;18022;45.492;11.548;2023-03-05T15:17:08;34.35;;;22.20;;
31390;SDS011;18022;45.492;11.548;2023-03-05T15:19:35;34.17;;;20.92;;
31390;SDS011;18022;45.492;11.548;2023-03-05T15:22:01;33.75;;;21.65;;
31390;SDS011;18022;45.492;11.548;2023-03-05T15:24:27;40.90;;;26.17;;
31390;SDS011;18022;45.492;11.548;2023-03-05T15:26:53;43.15;;;29.33;;
31390;SDS011;18022;45.492;11.548;2023-03-05T15:29:19;47.80;;;29.25;;
31390;SDS011;18022;45.492;11.548;2023-03-05T15:31:45;45.85;;;30.73;;
31390;SDS011;18022;45.492;11.548;2023-03-05T15:34:11;43.53;;;28.60;;
31390;SDS011;18022;45.492;11.548;2023-03-05T15:36:37;49.20;;;31.38;;
31390;SDS011;18022;45.492;11.548;2023-03-05T15:39:03;45.25;;;29.52;;
31390;SDS011;18022;45.492;11.548;2023-03-05T15:41:29;42.42;;;29.10;;
31390;SDS011;18022;45.492;11.548;2023-03-05T15:43:56;43.70;;;29.38;;